createdAt,value
2023-05-06T00:02:29.613Z,65.70
2023-05-06T00:05:03.507Z,65.85
2023-05-06T00:07:37.125Z,66.00
2023-05-06T00:10:17.186Z,66.01
2023-05-06T00:12:48.484Z,67.16
2023-05-06T00:15:17.811Z,66.44
2023-05-06T00:17:47.048Z,66.68
2023-05-06T00:20:18.110Z,66.65
2023-05-06T00:22:52.746Z,66.25
2023-05-06T00:25:23.855Z,66.27
2023-05-06T00:27:54.636Z,66.58
2023-05-06T00:30:26.408Z,67.22
2023-05-06T00:33:01.524Z,67.08
2023-05-06T00:35:41.937Z,66.53
2023-05-06T00:38:15.341Z,66.86
2023-05-06T00:40:46.664Z,67.03
2023-05-06T00:43:17.646Z,67.04
2023-05-06T00:46:01.024Z,66.92
2023-05-06T00:48:32.676Z,68.84
2023-05-06T00:51:04.400Z,68.11
2023-05-06T00:53:34.620Z,68.74
2023-05-06T00:56:04.812Z,67.68
2023-05-06T00:58:40.501Z,68.40
2023-05-06T01:01:10.564Z,69.32
2023-05-06T01:03:44.873Z,69.70
2023-05-06T01:06:20.723Z,69.05
2023-05-06T01:08:59.852Z,69.23
2023-05-06T01:11:38.667Z,68.66
2023-05-06T01:14:24.167Z,68.24
2023-05-06T01:16:57.386Z,68.99
2023-05-06T01:19:38.928Z,68.62
2023-05-06T01:22:19.012Z,68.14
2023-05-06T01:24:50.805Z,67.92
2023-05-06T01:27:31.335Z,68.03
2023-05-06T01:30:02.406Z,67.60
2023-05-06T01:32:42.335Z,67.61
2023-05-06T01:35:21.803Z,67.24
2023-05-06T01:37:57.379Z,66.51
2023-05-06T01:40:32.800Z,66.73
2023-05-06T01:43:03.573Z,66.54
2023-05-06T01:45:35.150Z,66.85
2023-05-06T01:48:09.000Z,67.02
2023-05-06T01:50:46.928Z,67.00
2023-05-06T01:53:17.294Z,67.20
2023-05-06T01:56:02.829Z,67.34
2023-05-06T01:58:34.987Z,68.24
2023-05-06T02:01:06.595Z,67.94
2023-05-06T02:03:37.682Z,68.22
2023-05-06T02:06:06.097Z,68.58
2023-05-06T02:08:40.703Z,68.68
2023-05-06T02:11:19.028Z,69.99
2023-05-06T02:14:05.226Z,70.43
2023-05-06T02:16:36.588Z,70.95
2023-05-06T02:19:07.815Z,70.38
2023-05-06T02:21:37.935Z,70.17
2023-05-06T02:24:24.583Z,69.32
2023-05-06T02:26:57.125Z,69.87
2023-05-06T02:29:34.135Z,69.99
2023-05-06T02:32:05.348Z,70.64
2023-05-06T02:34:35.630Z,70.52
2023-05-06T02:37:05.815Z,70.37
2023-05-06T02:39:35.418Z,69.61
2023-05-06T02:42:07.275Z,70.09
2023-05-06T02:44:42.449Z,70.25
2023-05-06T02:47:11.108Z,70.42
2023-05-06T02:49:42.205Z,70.18
2023-05-06T02:52:13.272Z,70.35
2023-05-06T02:54:50.041Z,70.28
2023-05-06T02:57:26.540Z,69.90
2023-05-06T02:59:56.610Z,70.01
2023-05-06T03:02:28.304Z,69.65
2023-05-06T03:04:57.933Z,69.64
2023-05-06T03:07:28.177Z,69.23
2023-05-06T03:09:56.774Z,69.44
2023-05-06T03:12:29.085Z,68.66
2023-05-06T03:14:59.263Z,68.36
2023-05-06T03:17:28.216Z,68.66
2023-05-06T03:20:02.988Z,67.83
2023-05-06T03:22:33.968Z,68.23
2023-05-06T03:25:05.448Z,68.96
2023-05-06T03:27:57.641Z,68.45
2023-05-06T03:30:27.024Z,69.02
2023-05-06T03:32:59.065Z,69.09
2023-05-06T03:35:34.161Z,69.05
2023-05-06T03:38:05.482Z,69.40
2023-05-06T03:40:42.834Z,69.79
2023-05-06T03:43:16.328Z,69.30
2023-05-06T03:45:50.612Z,69.98
2023-05-06T03:48:21.739Z,70.28
2023-05-06T03:50:52.074Z,69.52
2023-05-06T03:53:23.146Z,70.13
2023-05-06T03:56:01.318Z,69.67
2023-05-06T03:58:36.678Z,70.70
2023-05-06T04:01:07.776Z,70.22
2023-05-06T04:03:38.436Z,70.79
2023-05-06T04:06:09.713Z,70.48
2023-05-06T04:08:38.290Z,70.36
2023-05-06T04:11:22.414Z,71.22
2023-05-06T04:14:05.547Z,71.93
2023-05-06T04:16:35.295Z,72.74
2023-05-06T04:19:08.380Z,73.37
2023-05-06T04:21:39.888Z,73.37
2023-05-06T04:24:19.490Z,71.70
2023-05-06T04:26:49.726Z,72.91
2023-05-06T04:29:25.661Z,72.04
2023-05-06T04:32:11.759Z,72.43
2023-05-06T04:34:42.803Z,72.65
2023-05-06T04:37:17.731Z,72.13
2023-05-06T04:39:50.296Z,72.75
2023-05-06T04:42:21.991Z,71.88
2023-05-06T04:45:09.812Z,71.79
2023-05-06T04:47:42.453Z,72.04
2023-05-06T04:50:13.034Z,72.45
2023-05-06T04:52:44.670Z,71.84
2023-05-06T04:55:15.531Z,71.93
2023-05-06T04:57:52.807Z,72.92
2023-05-06T05:00:31.076Z,72.92
2023-05-06T05:03:10.055Z,73.33
2023-05-06T05:05:39.795Z,74.05
2023-05-06T05:08:25.178Z,74.19
2023-05-06T05:10:53.755Z,75.27
2023-05-06T05:13:26.528Z,75.80
2023-05-06T05:16:00.972Z,75.07
2023-05-06T05:18:35.785Z,75.28
2023-05-06T05:21:12.185Z,75.64
2023-05-06T05:23:42.729Z,75.97
2023-05-06T05:26:16.393Z,76.64
2023-05-06T05:28:49.841Z,77.38
2023-05-06T05:31:34.882Z,77.36
2023-05-06T05:34:10.485Z,76.73
2023-05-06T05:36:46.957Z,76.62
2023-05-06T05:39:17.743Z,76.32
2023-05-06T05:41:57.570Z,76.38
2023-05-06T05:44:39.843Z,77.38
2023-05-06T05:47:25.891Z,77.18
2023-05-06T05:49:54.586Z,76.97
2023-05-06T05:52:24.889Z,76.40
2023-05-06T05:54:53.478Z,76.91
2023-05-06T05:57:24.561Z,77.57
2023-05-06T05:59:55.930Z,77.36
2023-05-06T06:02:35.606Z,76.67
2023-05-06T06:05:12.901Z,76.35
2023-05-06T06:07:43.551Z,76.38
2023-05-06T06:10:16.825Z,76.46
2023-05-06T06:12:52.106Z,75.80
2023-05-06T06:15:26.979Z,76.12
2023-05-06T06:17:59.919Z,76.41
2023-05-06T06:20:46.315Z,76.53
2023-05-06T06:23:16.782Z,76.11
2023-05-06T06:25:48.625Z,76.05
2023-05-06T06:28:18.994Z,76.58
2023-05-06T06:30:51.090Z,76.65
2023-05-06T06:33:23.683Z,76.22
2023-05-06T06:35:55.878Z,74.44
2023-05-06T06:38:29.419Z,74.21
2023-05-06T06:40:57.673Z,73.52
2023-05-06T06:43:29.427Z,72.20
2023-05-06T06:46:02.233Z,72.18
2023-05-06T06:48:34.341Z,70.99
2023-05-06T06:51:03.747Z,70.87
2023-05-06T06:53:35.634Z,69.50
2023-05-06T06:56:04.648Z,69.52
2023-05-06T06:58:34.655Z,68.28
2023-05-06T07:01:05.119Z,68.70
2023-05-06T07:03:39.535Z,68.45
2023-05-06T07:06:07.672Z,69.06
2023-05-06T07:08:36.340Z,68.08
2023-05-06T07:11:08.300Z,68.03
2023-05-06T07:13:39.104Z,68.81
2023-05-06T07:16:07.423Z,68.28
2023-05-06T07:18:36.884Z,67.04
2023-05-06T07:21:06.407Z,64.83
2023-05-06T07:23:36.951Z,65.57
2023-05-06T07:26:07.546Z,65.70
2023-05-06T07:28:38.246Z,65.69
2023-05-06T07:31:20.981Z,65.22
2023-05-06T07:33:53.271Z,65.12
2023-05-06T07:36:22.544Z,64.65
2023-05-06T07:38:53.046Z,64.65
2023-05-06T07:41:26.592Z,64.08
2023-05-06T07:44:05.996Z,63.61
2023-05-06T07:46:35.826Z,63.74
2023-05-06T07:49:11.968Z,64.12
2023-05-06T07:51:43.126Z,63.53
2023-05-06T07:54:17.640Z,63.10
2023-05-06T07:56:48.371Z,63.72
2023-05-06T07:59:26.328Z,63.22
2023-05-06T08:01:54.549Z,62.97
2023-05-06T08:04:25.068Z,62.54
2023-05-06T08:06:54.761Z,62.40
2023-05-06T08:09:29.021Z,62.01
2023-05-06T08:12:00.876Z,62.09
2023-05-06T08:14:29.720Z,62.16
2023-05-06T08:16:59.969Z,61.75
2023-05-06T08:19:34.544Z,61.13
2023-05-06T08:22:05.272Z,60.97
2023-05-06T08:24:35.998Z,61.01
2023-05-06T08:27:07.758Z,61.27
2023-05-06T08:29:36.704Z,60.38
2023-05-06T08:32:08.445Z,60.69
2023-05-06T08:34:39.032Z,61.35
2023-05-06T08:37:11.484Z,60.53
2023-05-06T08:39:43.552Z,60.08
2023-05-06T08:42:14.680Z,59.93
2023-05-06T08:44:44.277Z,59.77
2023-05-06T08:47:14.020Z,59.34
2023-05-06T08:49:49.295Z,58.95
2023-05-06T08:52:28.050Z,59.82
2023-05-06T08:55:05.233Z,60.50
2023-05-06T08:57:36.211Z,60.10
2023-05-06T09:00:11.992Z,60.04
2023-05-06T09:02:43.522Z,59.71
2023-05-06T09:05:16.318Z,60.00
2023-05-06T09:07:47.740Z,59.98
2023-05-06T09:10:19.349Z,59.70
2023-05-06T09:12:55.700Z,59.37
2023-05-06T09:15:42.920Z,59.23
2023-05-06T09:18:20.057Z,59.05
2023-05-06T09:20:58.802Z,58.33
2023-05-06T09:23:32.040Z,58.31
2023-05-06T09:26:00.186Z,57.59
2023-05-06T09:28:36.685Z,56.22
2023-05-06T09:31:06.113Z,56.05
2023-05-06T09:33:37.399Z,55.28
2023-05-06T09:36:13.489Z,54.39
2023-05-06T09:38:42.444Z,54.70
2023-05-06T09:41:11.259Z,54.62
2023-05-06T09:43:42.051Z,55.61
2023-05-06T09:46:12.743Z,55.34
2023-05-06T09:48:50.887Z,54.98
2023-05-06T09:51:26.902Z,55.18
2023-05-06T09:53:57.011Z,54.87
2023-05-06T09:56:25.912Z,55.58
2023-05-06T09:58:56.489Z,55.41
2023-05-06T10:01:35.946Z,56.06
2023-05-06T10:04:09.506Z,55.60
2023-05-06T10:06:47.309Z,54.58
2023-05-06T10:09:18.308Z,53.87
2023-05-06T10:11:56.050Z,54.50
2023-05-06T10:14:26.408Z,54.06
2023-05-06T10:16:57.991Z,53.89
2023-05-06T10:19:31.500Z,53.99
2023-05-06T10:22:11.158Z,52.39
2023-05-06T10:24:55.738Z,52.12
2023-05-06T10:27:36.804Z,53.19
2023-05-06T10:30:10.167Z,52.24
2023-05-06T10:32:45.711Z,51.32
2023-05-06T10:35:23.035Z,51.96
2023-05-06T10:37:59.384Z,51.52
2023-05-06T10:40:33.202Z,51.48
2023-05-06T10:43:29.309Z,50.67
2023-05-06T10:46:12.618Z,51.85
2023-05-06T10:49:09.258Z,50.90
2023-05-06T10:51:43.344Z,50.26
2023-05-06T10:54:24.111Z,50.11
2023-05-06T10:57:11.783Z,51.43
2023-05-06T10:59:47.821Z,50.57
2023-05-06T11:02:29.395Z,50.52
2023-05-06T11:05:02.297Z,50.65
2023-05-06T11:07:34.249Z,50.51
2023-05-06T11:10:08.197Z,50.30
2023-05-06T11:12:56.840Z,49.80
2023-05-06T11:15:43.773Z,50.27
2023-05-06T11:18:46.722Z,50.40
2023-05-06T11:21:39.889Z,50.64
2023-05-06T11:24:12.417Z,50.74
2023-05-06T11:26:48.493Z,49.70
2023-05-06T11:29:18.985Z,48.80
2023-05-06T11:31:55.876Z,48.20
2023-05-06T11:34:27.601Z,47.72
2023-05-06T11:37:15.385Z,48.29
2023-05-06T11:39:52.114Z,48.00
2023-05-06T11:42:32.563Z,47.60
2023-05-06T11:45:05.367Z,47.85
2023-05-06T11:47:34.289Z,50.19
2023-05-06T11:50:15.107Z,53.46
2023-05-06T11:52:48.070Z,55.52
2023-05-06T11:55:19.565Z,56.16
2023-05-06T11:57:49.212Z,54.80
2023-05-06T12:00:23.531Z,54.37
2023-05-06T12:02:59.591Z,54.34
2023-05-06T12:05:33.563Z,52.42
2023-05-06T12:08:02.220Z,51.64
2023-05-06T12:10:32.020Z,49.81
2023-05-06T12:13:17.970Z,48.91
2023-05-06T12:15:47.933Z,51.77
2023-05-06T12:18:19.201Z,52.93
2023-05-06T12:20:51.077Z,52.81
2023-05-06T12:23:22.108Z,53.43
2023-05-06T12:26:04.922Z,53.96
2023-05-06T12:28:43.106Z,54.84
2023-05-06T12:31:21.419Z,57.53
2023-05-06T12:33:56.097Z,59.31
2023-05-06T12:36:28.096Z,60.50
2023-05-06T12:39:07.997Z,61.57
2023-05-06T12:41:42.292Z,60.41
2023-05-06T12:44:36.397Z,60.95
2023-05-06T12:47:14.620Z,59.78
2023-05-06T12:49:48.822Z,56.88
2023-05-06T12:52:28.795Z,56.15
2023-05-06T12:54:57.663Z,56.64
2023-05-06T12:57:36.271Z,55.57
2023-05-06T13:00:10.876Z,55.42
2023-05-06T13:02:49.984Z,55.72
2023-05-06T13:05:34.377Z,56.25
2023-05-06T13:08:04.735Z,54.91
2023-05-06T13:10:35.195Z,53.90
2023-05-06T13:13:05.668Z,52.70
2023-05-06T13:15:39.696Z,50.06
2023-05-06T13:18:15.161Z,47.85
2023-05-06T13:20:48.530Z,47.12
2023-05-06T13:23:20.129Z,45.56
2023-05-06T13:26:03.578Z,45.90
2023-05-06T13:28:39.346Z,47.77
2023-05-06T13:31:12.109Z,49.59
2023-05-06T13:33:45.164Z,51.28
2023-05-06T13:36:14.952Z,52.77
2023-05-06T13:38:55.650Z,53.94
2023-05-06T13:41:25.791Z,54.23
2023-05-06T13:43:58.726Z,53.24
2023-05-06T13:46:36.199Z,51.01
2023-05-06T13:49:05.479Z,50.50
2023-05-06T13:51:36.753Z,50.88
2023-05-06T13:54:08.344Z,50.98
2023-05-06T13:56:38.088Z,51.51
2023-05-06T13:59:10.035Z,53.03
2023-05-06T14:01:49.604Z,54.08
2023-05-06T14:04:18.534Z,54.54
2023-05-06T14:06:49.734Z,55.45
2023-05-06T14:09:21.004Z,58.82
2023-05-06T14:11:50.632Z,60.15
2023-05-06T14:14:20.563Z,60.50
2023-05-06T14:16:53.465Z,63.68
2023-05-06T14:19:22.175Z,66.61
2023-05-06T14:21:52.261Z,70.77
2023-05-06T14:24:21.076Z,75.30
2023-05-06T14:26:58.038Z,75.30
2023-05-06T14:29:34.834Z,73.65
2023-05-06T14:32:19.760Z,68.67
2023-05-06T14:34:50.635Z,70.82
2023-05-06T14:37:24.541Z,72.88
2023-05-06T14:40:00.344Z,72.30
2023-05-06T14:42:28.934Z,72.15
2023-05-06T14:44:58.158Z,72.26
2023-05-06T14:47:29.751Z,71.45
2023-05-06T14:50:01.730Z,70.63
2023-05-06T14:52:29.732Z,68.64
2023-05-06T14:55:01.394Z,65.40
2023-05-06T14:57:30.784Z,62.30
2023-05-06T15:00:01.468Z,58.76
2023-05-06T15:02:33.456Z,57.77
2023-05-06T15:05:11.606Z,54.50
2023-05-06T15:07:44.143Z,54.52
2023-05-06T15:10:22.887Z,53.58
2023-05-06T15:12:56.295Z,53.62
2023-05-06T15:15:25.194Z,52.72
2023-05-06T15:17:59.806Z,50.89
2023-05-06T15:20:30.339Z,50.78
2023-05-06T15:23:01.293Z,50.29
2023-05-06T15:25:38.316Z,50.63
2023-05-06T15:28:10.220Z,49.88
2023-05-06T15:30:38.490Z,50.25
2023-05-06T15:33:09.903Z,51.38
2023-05-06T15:35:43.395Z,51.49
2023-05-06T15:38:15.370Z,52.73
2023-05-06T15:40:52.303Z,53.91
2023-05-06T15:43:24.051Z,54.42
2023-05-06T15:45:58.851Z,54.67
2023-05-06T15:48:43.566Z,53.76
2023-05-06T15:51:12.483Z,52.76
2023-05-06T15:53:44.012Z,51.99
2023-05-06T15:56:18.284Z,51.44
2023-05-06T15:58:47.580Z,53.07
2023-05-06T16:01:23.803Z,52.74
2023-05-06T16:04:13.874Z,51.31
2023-05-06T16:06:44.296Z,51.38
2023-05-06T16:09:17.209Z,52.50
2023-05-06T16:11:45.674Z,54.69
2023-05-06T16:14:18.869Z,55.46
2023-05-06T16:16:47.364Z,56.00
2023-05-06T16:19:32.841Z,56.63
2023-05-06T16:22:00.856Z,57.22
2023-05-06T16:24:31.983Z,59.23
2023-05-06T16:27:02.455Z,60.60
2023-05-06T16:29:30.565Z,61.43
2023-05-06T16:32:01.210Z,63.35
2023-05-06T16:34:30.630Z,63.86
2023-05-06T16:37:00.537Z,63.51
2023-05-06T16:39:31.847Z,63.27
2023-05-06T16:42:00.885Z,64.08
2023-05-06T16:44:30.299Z,65.53
2023-05-06T16:46:58.426Z,65.98
2023-05-06T16:49:30.229Z,67.32
2023-05-06T16:52:00.571Z,68.23
2023-05-06T16:54:33.004Z,67.79
2023-05-06T16:57:03.864Z,68.35
2023-05-06T16:59:38.447Z,67.29
2023-05-06T17:02:07.580Z,67.39
2023-05-06T17:04:44.942Z,66.93
2023-05-06T17:07:19.500Z,67.15
2023-05-06T17:09:51.353Z,66.36
2023-05-06T17:12:24.279Z,66.66
2023-05-06T17:14:52.528Z,67.26
2023-05-06T17:17:29.064Z,67.66
2023-05-06T17:19:59.452Z,70.32
2023-05-06T17:22:36.220Z,71.20
2023-05-06T17:25:08.051Z,71.55
2023-05-06T17:27:38.673Z,71.63
2023-05-06T17:30:15.002Z,73.16
2023-05-06T17:32:44.283Z,75.73
2023-05-06T17:35:14.567Z,77.30
2023-05-06T17:37:51.623Z,78.39
2023-05-06T17:40:28.728Z,80.48
2023-05-06T17:43:12.009Z,82.00
2023-05-06T17:45:49.866Z,82.88
2023-05-06T17:48:23.213Z,83.03
2023-05-06T17:50:53.212Z,84.39
2023-05-06T17:53:26.283Z,84.11
2023-05-06T17:55:58.568Z,83.58
2023-05-06T17:58:30.149Z,84.46
2023-05-06T18:01:08.008Z,83.75
2023-05-06T18:03:39.347Z,84.45
2023-05-06T18:06:11.114Z,83.43
2023-05-06T18:08:52.222Z,82.15
2023-05-06T18:11:26.581Z,83.47
2023-05-06T18:14:00.477Z,82.58
2023-05-06T18:16:31.562Z,84.33
2023-05-06T18:19:14.891Z,85.15
2023-05-06T18:21:51.161Z,83.27
2023-05-06T18:24:21.525Z,83.55
2023-05-06T18:26:55.845Z,82.99
2023-05-06T18:29:25.623Z,83.49
2023-05-06T18:31:55.434Z,83.90
2023-05-06T18:34:29.818Z,83.90
2023-05-06T18:37:02.329Z,83.31
2023-05-06T18:39:44.152Z,83.13
2023-05-06T18:42:17.627Z,83.53
2023-05-06T18:44:50.741Z,84.28
2023-05-06T18:47:28.650Z,82.54
2023-05-06T18:50:01.692Z,80.12
2023-05-06T18:52:33.579Z,80.64
2023-05-06T18:55:16.737Z,81.38
2023-05-06T18:58:00.975Z,82.93
2023-05-06T19:00:30.104Z,84.40
2023-05-06T19:02:59.391Z,85.28
2023-05-06T19:05:30.656Z,85.42
2023-05-06T19:08:09.998Z,85.43
2023-05-06T19:10:43.245Z,84.83
2023-05-06T19:13:20.697Z,85.63
2023-05-06T19:15:51.462Z,88.65
2023-05-06T19:18:23.495Z,92.47
2023-05-06T19:20:53.378Z,92.98
2023-05-06T19:23:27.402Z,93.52
2023-05-06T19:26:06.653Z,92.86
2023-05-06T19:28:41.674Z,94.04
2023-05-06T19:31:16.082Z,94.62
2023-05-06T19:33:47.415Z,96.56
2023-05-06T19:36:25.993Z,96.17
2023-05-06T19:39:02.335Z,95.36
2023-05-06T19:41:37.830Z,95.15
2023-05-06T19:44:09.729Z,94.58
2023-05-06T19:46:39.928Z,95.36
2023-05-06T19:49:10.814Z,96.57
2023-05-06T19:51:47.841Z,96.86
2023-05-06T19:54:19.166Z,97.25
2023-05-06T19:56:56.309Z,99.84
2023-05-06T19:59:26.200Z,100.00
2023-05-06T20:01:55.122Z,99.81
2023-05-06T20:04:24.437Z,100.00
2023-05-06T20:06:56.651Z,100.00
2023-05-06T20:09:30.205Z,100.00
2023-05-06T20:12:01.406Z,100.00
2023-05-06T20:14:32.166Z,100.00
2023-05-06T20:17:03.121Z,100.00
2023-05-06T20:19:32.519Z,100.00
2023-05-06T20:22:02.745Z,100.00
2023-05-06T20:24:35.425Z,100.00
2023-05-06T20:27:11.468Z,100.00
2023-05-06T20:29:43.566Z,100.00
2023-05-06T20:32:13.718Z,98.40
2023-05-06T20:34:43.564Z,96.04
2023-05-06T20:37:12.519Z,95.39
2023-05-06T20:39:42.648Z,95.61
2023-05-06T20:42:14.738Z,96.08
2023-05-06T20:44:51.950Z,96.62
2023-05-06T20:47:23.967Z,95.52
2023-05-06T20:49:52.694Z,97.90
2023-05-06T20:52:23.659Z,97.78
2023-05-06T20:54:55.544Z,99.48
2023-05-06T20:57:36.356Z,99.00
2023-05-06T21:00:08.137Z,99.41
2023-05-06T21:02:41.232Z,97.98
2023-05-06T21:05:12.556Z,98.05
2023-05-06T21:07:44.952Z,96.38
2023-05-06T21:10:15.967Z,94.21
2023-05-06T21:12:55.680Z,96.33
2023-05-06T21:15:24.883Z,98.04
2023-05-06T21:17:55.851Z,98.19
2023-05-06T21:20:24.211Z,97.36
2023-05-06T21:22:55.579Z,99.48
2023-05-06T21:25:24.960Z,97.94
2023-05-06T21:28:05.394Z,99.74
2023-05-06T21:30:35.546Z,99.03
2023-05-06T21:33:06.635Z,99.29
2023-05-06T21:35:36.839Z,99.90
2023-05-06T21:38:09.777Z,100.00
2023-05-06T21:40:42.067Z,99.40
2023-05-06T21:43:13.574Z,98.93
2023-05-06T21:45:48.713Z,100.00
2023-05-06T21:48:26.740Z,100.00
2023-05-06T21:51:02.911Z,100.00
2023-05-06T21:53:39.780Z,100.00
2023-05-06T21:56:19.867Z,100.00
2023-05-06T21:58:59.422Z,100.00
2023-05-06T22:01:32.765Z,100.00
2023-05-06T22:04:01.981Z,100.00
2023-05-06T22:06:30.270Z,100.00
2023-05-06T22:08:58.337Z,100.00
2023-05-06T22:11:27.703Z,100.00
2023-05-06T22:14:02.890Z,100.00
2023-05-06T22:16:31.906Z,100.00
2023-05-06T22:19:00.766Z,100.00
2023-05-06T22:21:30.411Z,100.00
2023-05-06T22:23:59.067Z,100.00
2023-05-06T22:26:32.428Z,100.00
2023-05-06T22:29:11.024Z,100.00
2023-05-06T22:31:47.523Z,100.00
2023-05-06T22:34:21.391Z,100.00
2023-05-06T22:36:51.653Z,100.00
2023-05-06T22:39:21.903Z,100.00
2023-05-06T22:41:51.334Z,100.00
2023-05-06T22:44:23.204Z,100.00
2023-05-06T22:46:53.177Z,100.00
2023-05-06T22:49:28.347Z,100.00
2023-05-06T22:52:09.141Z,100.00
2023-05-06T22:54:40.973Z,100.00
2023-05-06T22:57:10.943Z,100.00
2023-05-06T22:59:40.752Z,100.00
2023-05-06T23:02:08.994Z,100.00
2023-05-06T23:04:39.008Z,100.00
2023-05-06T23:07:11.852Z,100.00
2023-05-06T23:09:45.722Z,100.00
2023-05-06T23:12:19.244Z,100.00
2023-05-06T23:15:03.505Z,100.00
2023-05-06T23:17:33.854Z,100.00
2023-05-06T23:20:07.088Z,100.00
2023-05-06T23:22:37.982Z,100.00
2023-05-06T23:25:08.540Z,100.00
2023-05-06T23:27:42.529Z,100.00
2023-05-06T23:30:17.679Z,100.00
2023-05-06T23:32:48.018Z,100.00
2023-05-06T23:35:24.723Z,100.00
2023-05-06T23:37:55.954Z,100.00
2023-05-06T23:40:27.287Z,100.00
2023-05-06T23:42:57.413Z,100.00
2023-05-06T23:45:30.188Z,100.00
2023-05-06T23:48:00.891Z,100.00
2023-05-06T23:50:31.543Z,100.00
2023-05-06T23:53:04.077Z,100.00
2023-05-06T23:55:40.301Z,100.00
2023-05-06T23:58:10.887Z,100.00
